Time;durP1;ratioP1;P1;durP2;ratioP2;P2;SDS_P1;SDS_P2;PMS_P1;PMS_P2;Temp;Humidity;BMP_temperature;BMP_pressure;BME280_temperature;BME280_humidity;BME280_pressure;Samples;Min_cycle;Max_cycle;Signal;HPM_P1;HPM_P2
2022/03/23 00:00:39;;;;;;;32.17;19.73;;;;;;;11.79;49.28;102898.50;5050110;28;20158;-45
2022/03/23 00:03:07;;;;;;;35.55;20.48;;;;;;;11.79;50.08;102900.41;5053721;28;20041;-48
2022/03/23 00:05:38;;;;;;;30.90;20.92;;;;;;;11.75;49.78;102900.00;5053491;28;20051;-46
2022/03/23 00:08:05;;;;;;;31.67;20.80;;;;;;;11.69;49.62;102899.00;5046660;28;20053;-49
2022/03/23 00:10:34;;;;;;;29.05;20.63;;;;;;;11.63;49.48;102899.91;5033890;28;20056;-48
2022/03/23 00:13:03;;;;;;;32.10;19.92;;;;;;;11.61;50.21;102898.44;5032542;28;20080;-47
2022/03/23 00:15:32;;;;;;;33.75;20.58;;;;;;;11.57;49.91;102897.22;5042714;28;20040;-47
2022/03/23 00:17:59;;;;;;;34.40;20.98;;;;;;;11.47;50.28;102895.00;5040039;28;20480;-48
2022/03/23 00:20:27;;;;;;;30.98;20.10;;;;;;;11.40;50.37;102899.66;5053322;28;20037;-47
2022/03/23 00:22:55;;;;;;;34.60;20.67;;;;;;;11.39;50.30;102901.56;5053576;28;20037;-44
2022/03/23 00:25:23;;;;;;;31.85;20.55;;;;;;;11.39;50.05;102898.84;5053176;28;20047;-46
2022/03/23 00:27:50;;;;;;;36.35;20.55;;;;;;;11.36;50.33;102904.75;5043396;28;20034;-47
2022/03/23 00:30:18;;;;;;;31.00;20.23;;;;;;;11.35;50.23;102903.06;5032974;28;20575;-45
2022/03/23 00:32:45;;;;;;;31.38;20.23;;;;;;;11.30;50.91;102908.34;5033483;28;20400;-45
2022/03/23 00:35:13;;;;;;;28.33;17.77;;;;;;;11.25;50.73;102902.72;5031992;28;20055;-44
2022/03/23 00:37:43;;;;;;;33.60;19.45;;;;;;;11.19;51.02;102904.47;5034071;28;20390;-48
2022/03/23 00:40:11;;;;;;;27.58;18.92;;;;;;;11.12;50.71;102908.28;5032220;28;20069;-49
2022/03/23 00:42:40;;;;;;;35.70;19.65;;;;;;;11.08;51.13;102905.16;5032146;28;20088;-49
2022/03/23 00:45:11;;;;;;;32.40;19.30;;;;;;;11.04;50.89;102906.66;5048261;28;20140;-45
2022/03/23 00:47:41;;;;;;;35.50;20.23;;;;;;;10.98;51.37;102902.09;5043470;28;20061;-51
2022/03/23 00:50:09;;;;;;;38.42;20.88;;;;;;;10.94;51.28;102896.22;5016040;28;20053;-52
2022/03/23 00:52:37;;;;;;;26.08;19.33;;;;;;;10.97;51.36;102900.44;5031988;28;20052;-50
2022/03/23 00:55:10;;;;;;;29.98;19.38;;;;;;;10.98;51.72;102897.47;5033336;28;20073;-49
2022/03/23 00:57:38;;;;;;;35.20;19.88;;;;;;;11.03;51.66;102897.63;5040151;28;20116;-52
2022/03/23 01:00:12;;;;;;;30.77;18.33;;;;;;;11.07;51.66;102898.88;5051897;28;20041;-51
2022/03/23 01:02:40;;;;;;;29.85;19.38;;;;;;;11.11;50.77;102901.16;5052879;28;20049;-49
2022/03/23 01:05:09;;;;;;;33.72;18.83;;;;;;;11.14;51.09;102901.56;5035233;28;20037;-49
2022/03/23 01:07:37;;;;;;;29.60;19.33;;;;;;;11.19;51.25;102900.91;5051547;28;20033;-52
2022/03/23 01:10:07;;;;;;;29.63;19.13;;;;;;;11.23;51.33;102904.84;5050924;28;20052;-50
2022/03/23 01:12:34;;;;;;;26.33;19.13;;;;;;;11.25;50.96;102902.72;5034950;28;20045;-51
2022/03/23 01:15:03;;;;;;;28.83;19.55;;;;;;;11.26;50.76;102901.69;5052609;28;20052;-51
2022/03/23 01:17:31;;;;;;;31.15;20.02;;;;;;;11.27;50.80;102900.63;5045121;28;20053;-52
2022/03/23 01:19:59;;;;;;;34.65;21.13;;;;;;;11.22;50.27;102897.72;5033074;28;20042;-48
2022/03/23 01:22:26;;;;;;;29.90;20.02;;;;;;;10.99;51.08;102899.16;5032921;28;20042;-48
2022/03/23 01:24:54;;;;;;;31.50;20.05;;;;;;;10.87;51.52;102895.41;5031522;28;20124;-48
2022/03/23 01:27:22;;;;;;;31.38;20.92;;;;;;;10.85;51.85;102903.00;5032748;28;20048;-49
2022/03/23 01:29:49;;;;;;;29.38;20.90;;;;;;;10.87;51.94;102895.41;5033022;28;20045;-52
2022/03/23 01:32:17;;;;;;;31.83;21.15;;;;;;;10.79;51.72;102893.78;5031145;28;20060;-53
2022/03/23 01:34:45;;;;;;;31.70;21.23;;;;;;;10.66;51.30;102891.16;5032305;28;20449;-46
2022/03/23 01:37:12;;;;;;;28.85;20.02;;;;;;;10.56;51.88;102896.22;5038578;28;20116;-52
2022/03/23 01:39:40;;;;;;;31.17;20.38;;;;;;;10.54;52.23;102890.16;5052862;28;20107;-51
2022/03/23 01:42:10;;;;;;;35.60;21.30;;;;;;;10.53;52.09;102889.31;5054022;28;20692;-48
2022/03/23 01:44:37;;;;;;;28.88;20.50;;;;;;;10.47;51.95;102884.75;5056016;28;20487;-46
2022/03/23 01:47:13;;;;;;;29.85;20.10;;;;;;;10.42;52.42;102879.09;5053424;28;20065;-52
2022/03/23 01:49:42;;;;;;;28.80;19.53;;;;;;;10.40;52.15;102883.94;5055347;28;20498;-50
2022/03/23 01:52:12;;;;;;;37.50;21.65;;;;;;;10.41;51.43;102883.72;5040643;28;20547;-51
2022/03/23 01:54:40;;;;;;;32.28;20.70;;;;;;;10.38;51.56;102880.59;5034800;28;20047;-50
2022/03/23 01:57:09;;;;;;;33.08;20.67;;;;;;;10.28;51.93;102874.72;5037155;28;20050;-50
2022/03/23 01:59:37;;;;;;;31.13;20.63;;;;;;;10.16;52.18;102875.38;5034965;28;20047;-50
2022/03/23 02:02:05;;;;;;;28.65;19.73;;;;;;;10.14;52.88;102879.38;5018615;28;20049;-52
2022/03/23 02:04:38;;;;;;;31.38;19.63;;;;;;;10.14;52.98;102869.31;5034779;28;20037;-52
2022/03/23 02:07:07;;;;;;;31.52;20.40;;;;;;;10.15;52.57;102876.44;5046490;28;20095;-48
2022/03/23 02:09:37;;;;;;;30.65;19.63;;;;;;;10.12;52.73;102871.41;5048534;28;20035;-49
2022/03/23 02:12:11;;;;;;;34.22;20.50;;;;;;;10.09;52.92;102873.75;5019233;28;20041;-51
2022/03/23 02:14:39;;;;;;;30.40;20.50;;;;;;;10.10;52.80;102868.09;5034799;28;20045;-52
2022/03/23 02:17:07;;;;;;;29.45;20.08;;;;;;;10.13;52.50;102866.81;5020494;28;20407;-51
2022/03/23 02:19:35;;;;;;;33.63;20.48;;;;;;;10.09;52.78;102860.94;5018312;28;20050;-52
2022/03/23 02:22:04;;;;;;;31.38;20.52;;;;;;;9.99;53.04;102863.28;5034385;28;20052;-53
2022/03/23 02:24:32;;;;;;;32.60;20.90;;;;;;;9.95;53.25;102857.44;5018031;28;20046;-50
2022/03/23 02:27:01;;;;;;;29.65;20.70;;;;;;;9.93;53.04;102864.13;5036382;28;20052;-51
2022/03/23 02:29:31;;;;;;;31.67;20.25;;;;;;;9.92;52.79;102868.75;5035703;28;20057;-53
2022/03/23 02:32:01;;;;;;;32.25;20.17;;;;;;;9.96;52.80;102855.56;5034425;28;20119;-52
2022/03/23 02:34:30;;;;;;;33.78;20.75;;;;;;;10.01;52.48;102861.19;5034217;28;20046;-49
2022/03/23 02:36:58;;;;;;;33.72;21.58;;;;;;;10.03;52.02;102859.94;5045357;28;20043;-51
2022/03/23 02:39:26;;;;;;;31.85;19.17;;;;;;;10.08;52.47;102853.84;5035199;28;20040;-51
2022/03/23 02:41:56;;;;;;;29.75;19.95;;;;;;;10.11;52.49;102856.13;5035009;28;20451;-50
2022/03/23 02:44:29;;;;;;;31.50;20.30;;;;;;;10.15;52.08;102853.81;5034925;28;20092;-50
2022/03/23 02:46:57;;;;;;;33.70;20.73;;;;;;;10.15;52.48;102859.25;5036390;28;20475;-52
2022/03/23 02:49:25;;;;;;;32.83;19.08;;;;;;;10.17;52.21;102858.00;5034093;28;20132;-52
2022/03/23 02:51:53;;;;;;;27.77;19.52;;;;;;;10.18;51.90;102865.13;5034538;28;20489;-49
2022/03/23 03:03:05;;;;;;;30.38;19.98;;;;;;;10.29;52.04;102869.06;5054674;28;20499;-51
2022/03/23 03:05:33;;;;;;;28.83;19.55;;;;;;;10.32;52.21;102876.84;5045812;28;20045;-53
2022/03/23 03:10:47;;;;;;;;;;;;;;;10.35;51.61;102873.69;5035070;28;20107;-50
2022/03/23 03:13:14;;;;;;;27.45;19.23;;;;;;;10.29;51.95;102870.97;5034762;28;19924;-53
2022/03/23 03:15:42;;;;;;;34.85;20.02;;;;;;;10.22;51.80;102876.41;5039736;28;20067;-53
2022/03/23 03:18:10;;;;;;;31.80;20.73;;;;;;;10.15;52.06;102871.00;5044330;28;20042;-50
2022/03/23 03:20:38;;;;;;;35.05;19.77;;;;;;;10.05;52.44;102876.03;5034738;28;20447;-53
2022/03/23 03:23:06;;;;;;;31.15;19.70;;;;;;;9.97;52.29;102873.56;5033816;28;20044;-50
2022/03/23 03:25:34;;;;;;;34.03;19.92;;;;;;;9.96;52.76;102874.63;5035498;28;20445;-47
2022/03/23 03:28:02;;;;;;;28.58;19.70;;;;;;;9.97;52.71;102873.56;5035838;28;20038;-49
2022/03/23 03:30:29;;;;;;;30.55;19.55;;;;;;;9.99;52.77;102876.91;5034608;28;20047;-49
2022/03/23 03:32:57;;;;;;;32.58;20.10;;;;;;;10.01;52.60;102880.25;5049941;28;20116;-49
2022/03/23 03:35:25;;;;;;;28.98;19.38;;;;;;;10.02;52.69;102877.31;5034123;28;20538;-51
2022/03/23 03:37:52;;;;;;;29.98;19.55;;;;;;;10.03;52.53;102876.28;5034364;28;20044;-50
2022/03/23 03:40:25;;;;;;;35.75;20.60;;;;;;;10.06;52.57;102876.91;5043622;28;20047;-49
2022/03/23 03:42:53;;;;;;;34.08;20.52;;;;;;;10.07;52.27;102873.94;5039731;28;20416;-48
2022/03/23 03:45:20;;;;;;;31.27;20.08;;;;;;;10.08;52.15;102872.91;5033056;28;20048;-53
2022/03/23 03:47:48;;;;;;;32.60;20.10;;;;;;;10.07;51.75;102873.94;5034229;28;20056;-54
2022/03/23 03:50:16;;;;;;;28.48;20.27;;;;;;;10.01;52.11;102883.00;5046765;28;20080;-52
2022/03/23 03:52:45;;;;;;;28.45;20.15;;;;;;;9.98;51.99;102886.13;5052382;28;20102;-50
2022/03/23 03:55:15;;;;;;;30.70;19.75;;;;;;;9.97;52.06;102879.84;5053911;28;20136;-49
2022/03/23 03:57:42;;;;;;;30.30;21.42;;;;;;;9.98;51.60;102886.97;5054048;28;20049;-52
2022/03/23 04:00:11;;;;;;;32.58;21.15;;;;;;;10.00;51.41;102884.03;5044925;28;20068;-52
2022/03/23 04:02:38;;;;;;;33.22;21.60;;;;;;;9.96;51.14;102886.34;5033866;28;20038;-52
2022/03/23 04:05:07;;;;;;;34.42;21.45;;;;;;;9.92;51.24;102881.53;5033706;28;20514;-49
2022/03/23 04:07:35;;;;;;;27.85;20.55;;;;;;;9.88;51.25;102880.28;5032853;28;20522;-53
2022/03/23 04:10:04;;;;;;;34.95;22.05;;;;;;;9.86;51.61;102877.78;5033833;28;20041;-52
2022/03/23 04:12:31;;;;;;;29.48;19.95;;;;;;;9.88;51.35;102880.28;5044076;28;20037;-53
2022/03/23 04:14:59;;;;;;;31.85;20.08;;;;;;;9.90;51.44;102878.19;5052366;28;20051;-53
2022/03/23 04:17:27;;;;;;;38.22;21.88;;;;;;;9.93;51.16;102877.75;5045063;28;20033;-50
2022/03/23 04:19:54;;;;;;;35.25;21.17;;;;;;;9.95;50.80;102881.94;5033406;28;20403;-52
2022/03/23 04:22:22;;;;;;;32.45;20.50;;;;;;;9.96;50.56;102885.53;5034717;28;20043;-51
2022/03/23 04:24:50;;;;;;;29.90;20.30;;;;;;;9.96;50.21;102888.25;5033522;28;20046;-51
2022/03/23 04:27:17;;;;;;;29.90;20.85;;;;;;;9.95;50.23;102886.56;5035192;28;20037;-45
2022/03/23 04:29:45;;;;;;;32.97;21.30;;;;;;;9.93;49.70;102888.66;5053370;28;20056;-53
2022/03/23 04:32:13;;;;;;;29.88;20.27;;;;;;;9.87;49.72;102884.06;5040704;28;20045;-52
2022/03/23 04:34:41;;;;;;;34.20;21.08;;;;;;;9.84;49.82;102889.91;5033261;28;20045;-54
2022/03/23 04:37:08;;;;;;;33.58;20.27;;;;;;;9.79;50.18;102891.41;5032022;28;20037;-53
2022/03/23 04:39:36;;;;;;;30.83;20.77;;;;;;;9.78;50.05;102897.88;5047120;28;20045;-52
2022/03/23 04:42:04;;;;;;;29.08;20.02;;;;;;;9.77;49.95;102896.22;5051479;28;20049;-51
2022/03/23 04:44:32;;;;;;;31.92;21.70;;;;;;;9.72;49.84;102892.47;5052842;28;20070;-52
2022/03/23 04:46:59;;;;;;;31.40;20.40;;;;;;;9.64;50.10;102895.41;5048221;28;20048;-50
2022/03/23 04:49:27;;;;;;;31.90;20.83;;;;;;;9.61;50.83;102902.09;5033544;28;20037;-52
2022/03/23 04:51:54;;;;;;;30.25;20.80;;;;;;;9.62;50.56;102897.47;5033574;28;20408;-53
2022/03/23 04:54:22;;;;;;;30.83;20.77;;;;;;;9.64;50.96;102901.66;5033361;28;20048;-52
2022/03/23 04:56:50;;;;;;;35.05;22.02;;;;;;;9.66;50.96;102907.75;5033707;28;20404;-53
2022/03/23 04:59:18;;;;;;;34.53;21.13;;;;;;;9.66;50.77;102905.03;5033222;28;20125;-46
2022/03/23 05:01:45;;;;;;;32.80;20.67;;;;;;;9.63;50.99;102902.72;5039259;28;20146;-53
2022/03/23 05:04:13;;;;;;;32.47;21.67;;;;;;;9.61;50.77;102904.81;5052297;28;20091;-53
2022/03/23 05:06:41;;;;;;;32.80;20.33;;;;;;;9.58;50.86;102905.25;5049374;28;20039;-54
2022/03/23 05:09:09;;;;;;;31.33;20.73;;;;;;;9.54;51.06;102909.44;5032853;28;20041;-54
2022/03/23 05:11:36;;;;;;;35.35;21.42;;;;;;;9.53;51.07;102911.31;5036881;28;20033;-51
2022/03/23 05:14:04;;;;;;;31.88;20.17;;;;;;;9.53;50.85;102905.03;5034168;28;20045;-46
2022/03/23 05:16:31;;;;;;;31.60;20.40;;;;;;;9.50;50.94;102902.72;5056207;28;20045;-49
2022/03/23 05:18:59;;;;;;;28.30;20.08;;;;;;;9.46;51.23;102905.03;5056641;28;20560;-52
2022/03/23 05:21:27;;;;;;;34.67;21.17;;;;;;;9.39;51.59;102909.63;5055231;28;20041;-53
2022/03/23 05:23:55;;;;;;;35.72;21.20;;;;;;;9.34;51.42;102907.53;5057198;28;20044;-50
2022/03/23 05:26:23;;;;;;;34.33;21.38;;;;;;;9.33;51.90;102908.59;5038476;28;20092;-51
2022/03/23 05:28:50;;;;;;;35.85;21.83;;;;;;;9.32;51.81;102906.91;5036858;28;20042;-50
2022/03/23 05:31:18;;;;;;;37.38;21.23;;;;;;;9.31;51.28;102907.13;5046349;28;20048;-50
2022/03/23 05:33:46;;;;;;;34.83;21.25;;;;;;;9.15;52.10;102908.34;5056093;28;20055;-52
2022/03/23 05:36:14;;;;;;;39.05;22.60;;;;;;;8.96;52.33;102910.00;5044611;28;20052;-54
2022/03/23 05:38:41;;;;;;;34.22;21.35;;;;;;;8.77;52.56;102911.63;5036721;28;20037;-52
2022/03/23 05:41:09;;;;;;;38.50;21.63;;;;;;;8.60;53.61;102910.31;5019535;28;20042;-53
2022/03/23 05:43:37;;;;;;;34.80;22.08;;;;;;;8.50;53.85;102919.66;5036153;28;20054;-52
2022/03/23 05:46:05;;;;;;;36.72;22.77;;;;;;;8.45;54.35;102914.00;5040264;28;20071;-53
2022/03/23 05:48:32;;;;;;;31.05;21.95;;;;;;;8.45;54.66;102921.31;5056248;28;20045;-53
2022/03/23 05:51:01;;;;;;;35.50;21.65;;;;;;;8.45;54.49;102921.31;5055734;28;20041;-54
2022/03/23 05:53:29;;;;;;;36.95;21.27;;;;;;;8.45;53.89;102924.88;5056117;28;20047;-52
2022/03/23 05:55:57;;;;;;;34.88;21.98;;;;;;;8.42;54.93;102913.56;5055167;28;20067;-49
2022/03/23 05:58:25;;;;;;;37.67;21.80;;;;;;;8.41;54.52;102923.59;5036164;28;20037;-52
2022/03/23 06:00:53;;;;;;;36.90;21.83;;;;;;;8.41;55.03;102922.75;5035921;28;20034;-53
2022/03/23 06:03:21;;;;;;;43.55;23.17;;;;;;;8.43;54.60;102926.94;5035838;28;20041;-52
2022/03/23 06:05:48;;;;;;;37.90;21.75;;;;;;;8.45;55.00;102935.75;5035361;28;20038;-53
2022/03/23 06:08:16;;;;;;;30.83;21.73;;;;;;;8.52;54.85;102931.19;5034343;28;20049;-48
2022/03/23 06:10:44;;;;;;;31.60;20.70;;;;;;;8.61;54.85;102940.00;5034365;28;20504;-50
2022/03/23 06:13:12;;;;;;;34.65;21.17;;;;;;;8.72;54.65;102941.28;5034690;28;20042;-51
2022/03/23 06:15:39;;;;;;;31.02;19.85;;;;;;;8.83;54.19;102948.88;5034865;28;20112;-53
2022/03/23 06:18:07;;;;;;;35.20;22.27;;;;;;;8.91;54.04;102947.84;5035433;28;20045;-51
2022/03/23 06:20:35;;;;;;;39.55;22.92;;;;;;;8.99;53.33;102946.81;5035139;28;20044;-51
2022/03/23 06:23:03;;;;;;;44.22;23.23;;;;;;;9.01;53.16;102944.72;5035614;28;20049;-50
2022/03/23 06:25:31;;;;;;;41.15;23.27;;;;;;;8.97;53.59;102952.44;5035297;28;20503;-52
2022/03/23 06:27:59;;;;;;;39.95;22.77;;;;;;;8.89;53.36;102950.75;5033470;28;20411;-52
2022/03/23 06:30:26;;;;;;;39.08;22.23;;;;;;;8.83;53.86;102948.03;5035294;28;20045;-52
2022/03/23 06:32:54;;;;;;;36.53;23.35;;;;;;;8.80;53.89;102960.13;5035466;28;20055;-53
2022/03/23 06:35:22;;;;;;;40.08;22.48;;;;;;;8.81;54.61;102950.13;5034087;28;20052;-53
2022/03/23 06:37:50;;;;;;;40.95;22.88;;;;;;;8.83;54.00;102962.47;5033666;28;20387;-50
2022/03/23 06:40:18;;;;;;;40.53;23.27;;;;;;;8.82;54.39;102957.22;5034987;28;20460;-51
2022/03/23 06:42:50;;;;;;;41.70;24.73;;;;;;;8.74;54.56;102955.50;5035318;28;20132;-49
2022/03/23 06:45:18;;;;;;;41.22;22.80;;;;;;;8.71;55.10;102962.19;5033721;28;20515;-50
2022/03/23 06:47:46;;;;;;;43.78;24.77;;;;;;;8.68;54.98;102964.47;5034932;28;20073;-50
2022/03/23 06:50:14;;;;;;;41.78;24.60;;;;;;;8.67;54.78;102970.97;5034905;28;20045;-51
2022/03/23 06:52:41;;;;;;;43.85;23.92;;;;;;;8.71;55.04;102972.25;5035204;28;20480;-52
2022/03/23 06:55:09;;;;;;;45.30;24.05;;;;;;;8.75;55.28;102981.66;5034714;28;20045;-55
2022/03/23 06:57:37;;;;;;;44.38;24.63;;;;;;;8.75;55.16;102978.91;5034559;28;20124;-51
2022/03/23 07:00:16;;;;;;;45.45;24.10;;;;;;;8.76;54.64;102968.91;5034136;28;20037;-52
2022/03/23 07:02:48;;;;;;;38.00;24.70;;;;;;;8.80;54.51;102971.00;5033758;28;20048;-54
2022/03/23 07:05:17;;;;;;;38.78;24.20;;;;;;;8.83;54.07;102977.94;5034609;28;20047;-50
2022/03/23 07:10:32;;;;;;;39.47;24.00;;;;;;;8.88;54.11;102980.88;5033611;28;20120;-49
2022/03/23 07:12:59;;;;;;;43.70;24.38;;;;;;;8.89;54.69;102980.66;5033158;28;20041;-52
2022/03/23 07:15:28;;;;;;;44.63;24.02;;;;;;;8.93;54.04;102987.38;5033124;28;20039;-52
2022/03/23 07:17:55;;;;;;;41.33;25.08;;;;;;;8.95;53.97;102988.00;5033810;28;20057;-53
2022/03/23 07:20:24;;;;;;;47.10;25.60;;;;;;;8.96;54.53;102986.94;5034291;28;20047;-51
2022/03/23 07:22:51;;;;;;;43.10;23.83;;;;;;;8.96;54.37;102986.94;5035125;28;20121;-50
2022/03/23 07:25:19;;;;;;;42.53;24.95;;;;;;;9.02;54.16;102990.75;5034170;28;20037;-54
2022/03/23 07:27:47;;;;;;;48.65;25.30;;;;;;;9.08;53.59;102986.38;5034299;28;20061;-51
2022/03/23 07:30:14;;;;;;;40.95;23.90;;;;;;;9.12;52.94;102980.31;5034496;28;20038;-50
2022/03/23 07:32:42;;;;;;;37.90;24.77;;;;;;;9.21;53.17;102989.13;5033510;28;20042;-49
2022/03/23 07:35:10;;;;;;;40.05;22.80;;;;;;;9.27;52.85;102982.03;5033920;28;20500;-50
2022/03/23 07:37:37;;;;;;;38.00;22.77;;;;;;;9.33;52.53;102994.78;5037772;28;20037;-53
2022/03/23 07:40:06;;;;;;;33.30;22.88;;;;;;;9.38;52.34;102993.16;5033418;28;20042;-52
2022/03/23 07:42:33;;;;;;;39.97;23.13;;;;;;;9.43;51.24;102992.53;5034203;28;20045;-51
2022/03/23 07:45:01;;;;;;;36.10;23.30;;;;;;;9.45;51.25;102993.13;5034195;28;20054;-51
2022/03/23 07:47:28;;;;;;;30.88;22.55;;;;;;;9.47;51.21;102987.50;5032810;28;20113;-51
2022/03/23 07:49:56;;;;;;;31.63;22.27;;;;;;;9.49;51.07;102996.31;5035016;28;20047;-53
2022/03/23 07:52:24;;;;;;;33.63;23.20;;;;;;;9.52;51.24;102990.44;5033893;28;20046;-54
2022/03/23 07:54:52;;;;;;;37.72;22.77;;;;;;;9.54;51.54;102999.22;5033956;28;20048;-48
2022/03/23 07:57:20;;;;;;;40.72;24.38;;;;;;;9.55;51.59;102995.47;5045968;28;20049;-52
2022/03/23 07:59:48;;;;;;;37.60;23.63;;;;;;;9.55;51.20;103000.94;5053706;28;20068;-53
2022/03/23 08:02:15;;;;;;;35.40;23.40;;;;;;;9.58;51.33;103011.38;5047327;28;20042;-52
2022/03/23 08:04:43;;;;;;;33.63;22.13;;;;;;;9.63;51.37;103002.59;5034983;28;20069;-54
2022/03/23 08:07:11;;;;;;;35.85;23.58;;;;;;;9.67;51.31;103004.69;5053624;28;20056;-55
2022/03/23 08:09:39;;;;;;;33.55;23.35;;;;;;;9.69;51.16;103012.63;5052239;28;20049;-54
2022/03/23 08:12:06;;;;;;;34.53;23.33;;;;;;;9.71;51.39;103010.56;5053742;28;20063;-52
2022/03/23 08:14:34;;;;;;;37.70;24.58;;;;;;;9.73;51.48;103020.19;5053822;28;20044;-49
2022/03/23 08:17:02;;;;;;;39.10;25.00;;;;;;;9.73;51.42;103013.91;5028792;28;20132;-53
2022/03/23 08:19:30;;;;;;;37.58;23.85;;;;;;;9.72;51.58;103012.25;5032089;28;20484;-54
2022/03/23 08:21:57;;;;;;;35.00;23.65;;;;;;;9.75;51.96;103011.81;5033494;28;20385;-52
2022/03/23 08:24:25;;;;;;;36.78;24.13;;;;;;;9.80;51.74;103009.31;5033750;28;20041;-54
2022/03/23 08:26:53;;;;;;;43.53;24.58;;;;;;;9.84;51.84;103007.00;5033324;28;20132;-54
2022/03/23 08:29:21;;;;;;;35.97;23.92;;;;;;;9.87;51.47;103009.31;5036721;28;20474;-49
2022/03/23 08:31:49;;;;;;;35.53;24.33;;;;;;;9.90;51.49;103009.72;5052156;28;20522;-54
2022/03/23 08:34:17;;;;;;;43.13;24.73;;;;;;;9.94;51.80;103010.16;5053110;28;20148;-50
2022/03/23 08:36:45;;;;;;;39.72;25.48;;;;;;;9.96;52.29;103008.06;5036755;28;20132;-56
2022/03/23 08:39:12;;;;;;;38.70;24.70;;;;;;;9.99;52.08;103019.34;5043042;28;20080;-53
2022/03/23 08:41:40;;;;;;;38.97;25.08;;;;;;;10.01;52.08;103011.00;5052643;28;20041;-53
2022/03/23 08:44:09;;;;;;;39.05;24.90;;;;;;;10.05;52.28;103006.78;5050788;28;20063;-53
2022/03/23 08:46:36;;;;;;;38.72;24.23;;;;;;;10.11;52.52;103010.56;5053256;28;20041;-53
2022/03/23 08:49:04;;;;;;;34.33;23.27;;;;;;;10.15;53.22;103012.66;5048270;28;20056;-53
2022/03/23 08:51:31;;;;;;;32.55;22.65;;;;;;;10.19;52.92;103016.63;5032796;28;20045;-52
2022/03/23 08:53:59;;;;;;;38.78;24.25;;;;;;;10.23;53.20;103015.16;5032967;28;20038;-55
2022/03/23 08:56:27;;;;;;;35.63;25.20;;;;;;;10.29;52.92;103009.94;5046882;28;20045;-53
2022/03/23 08:58:54;;;;;;;34.58;24.08;;;;;;;10.33;52.49;103020.19;5051032;28;20044;-53
2022/03/23 09:01:22;;;;;;;36.20;24.73;;;;;;;10.39;51.88;103013.91;5034244;28;20045;-50
2022/03/23 09:03:50;;;;;;;31.73;23.25;;;;;;;10.44;50.88;103016.00;5031749;28;20395;-48
2022/03/23 09:06:17;;;;;;;35.33;23.10;;;;;;;10.49;51.59;103015.38;5033057;28;20053;-49
2022/03/23 09:08:45;;;;;;;31.25;22.38;;;;;;;10.52;50.68;103007.56;5032940;28;20092;-51
2022/03/23 09:11:13;;;;;;;35.22;22.52;;;;;;;10.54;50.86;103005.47;5032763;28;20049;-51
2022/03/23 09:13:44;;;;;;;36.13;23.67;;;;;;;10.57;51.28;103015.94;5033097;28;20037;-52
2022/03/23 09:16:11;;;;;;;36.03;23.55;;;;;;;10.61;51.14;103017.22;5033101;28;20108;-53
2022/03/23 09:18:39;;;;;;;35.53;24.85;;;;;;;10.66;50.12;103013.84;5031571;28;20069;-50
2022/03/23 09:21:07;;;;;;;36.05;24.73;;;;;;;10.73;49.78;103013.81;5032573;28;20056;-48
2022/03/23 09:23:36;;;;;;;34.30;23.90;;;;;;;10.81;49.49;103010.84;5033224;28;20095;-48
2022/03/23 09:26:05;;;;;;;35.00;23.45;;;;;;;10.89;49.83;103018.78;5033413;28;20083;-45
2022/03/23 09:28:32;;;;;;;36.30;23.95;;;;;;;10.97;49.21;103021.28;5032527;28;20034;-48
2022/03/23 09:31:00;;;;;;;30.85;22.45;;;;;;;11.03;49.02;103014.94;5032311;28;20116;-46
2022/03/23 09:33:28;;;;;;;32.45;23.30;;;;;;;11.09;48.72;103015.97;5032896;28;20045;-46
2022/03/23 09:35:56;;;;;;;36.00;22.98;;;;;;;11.12;49.28;103018.25;5031199;28;20444;-51
2022/03/23 09:38:24;;;;;;;35.30;23.42;;;;;;;11.15;49.18;103006.91;5031049;28;20034;-46
2022/03/23 09:40:52;;;;;;;33.25;23.75;;;;;;;11.18;49.67;103016.53;5032205;28;20133;-48
2022/03/23 09:43:22;;;;;;;37.30;23.42;;;;;;;11.22;49.62;103012.31;5032445;28;20038;-51
2022/03/23 09:45:51;;;;;;;39.72;24.50;;;;;;;11.28;49.43;103012.31;5032423;28;20056;-50
2022/03/23 09:48:21;;;;;;;35.90;22.98;;;;;;;11.34;48.72;103012.47;5032570;28;20448;-49
2022/03/23 09:50:52;;;;;;;31.90;21.77;;;;;;;11.38;48.31;103011.00;5032220;28;20048;-51
2022/03/23 09:53:23;;;;;;;37.85;23.85;;;;;;;11.44;47.95;103012.81;5031430;28;20044;-53
2022/03/23 09:55:52;;;;;;;36.22;23.75;;;;;;;11.52;46.50;103015.31;5032626;28;20120;-53
2022/03/23 09:58:19;;;;;;;34.15;23.63;;;;;;;11.60;46.14;103009.56;5031938;28;20140;-51
2022/03/23 10:00:49;;;;;;;33.28;22.10;;;;;;;11.69;46.38;103012.88;5031028;28;20048;-46
2022/03/23 10:03:38;;;;;;;35.97;24.33;;;;;;;11.75;46.17;103011.16;5035039;28;20049;-52
2022/03/23 10:06:47;;;;;;;35.30;24.98;;;;;;;11.85;46.42;103006.00;5034439;28;20046;-49
2022/03/23 10:09:25;;;;;;;31.40;23.48;;;;;;;11.88;46.92;103011.91;5035855;28;20132;-49
2022/03/23 10:12:20;;;;;;;35.90;23.65;;;;;;;11.87;46.62;103015.69;5052919;28;20120;-49
2022/03/23 10:15:25;;;;;;;35.13;23.88;;;;;;;11.87;46.77;103010.22;5055933;28;20053;-52
2022/03/23 10:18:44;;;;;;;34.92;24.80;;;;;;;11.97;46.93;103014.34;5054644;28;20488;-51
2022/03/23 10:21:12;;;;;;;35.10;24.15;;;;;;;12.07;47.35;103006.47;5036869;28;20523;-53
2022/03/23 10:23:49;;;;;;;38.20;24.13;;;;;;;12.10;46.76;103006.06;5035751;28;20033;-52
2022/03/23 10:26:17;;;;;;;34.10;24.95;;;;;;;12.11;46.60;103005.81;5034740;28;20050;-51
2022/03/23 10:28:45;;;;;;;28.33;21.33;;;;;;;12.16;46.75;102999.66;5047177;28;20399;-50
2022/03/23 10:31:21;;;;;;;36.17;23.67;;;;;;;12.19;46.56;103007.41;5041188;28;20044;-49
2022/03/23 10:33:56;;;;;;;;;;;;;;;12.25;46.56;102995.59;5035814;28;20041;-53
2022/03/23 10:36:27;;;;;;;30.77;21.75;;;;;;;12.31;46.38;103005.63;5034782;28;19956;-51
2022/03/23 10:39:02;;;;;;;39.70;24.15;;;;;;;12.34;45.16;102994.22;5036434;28;20041;-52
2022/03/23 10:41:30;;;;;;;38.05;24.13;;;;;;;12.45;45.19;102995.38;5048079;28;20041;-51
2022/03/23 10:43:59;;;;;;;42.13;25.42;;;;;;;12.58;45.31;102994.41;5055041;28;20095;-49
2022/03/23 10:46:26;;;;;;;32.97;21.63;;;;;;;12.73;45.77;102994.84;5055612;28;20053;-51
2022/03/23 10:49:06;;;;;;;32.00;22.20;;;;;;;12.81;45.12;102990.94;5054555;28;20049;-48
2022/03/23 10:51:36;;;;;;;31.00;22.92;;;;;;;12.84;42.47;102989.66;5054457;28;20045;-52
2022/03/23 10:54:18;;;;;;;33.88;23.13;;;;;;;12.94;41.08;102998.16;5055155;28;20048;-52
2022/03/23 10:56:46;;;;;;;33.88;22.02;;;;;;;12.95;41.03;102984.25;5054869;28;20041;-50
2022/03/23 10:59:25;;;;;;;25.58;18.95;;;;;;;12.92;40.95;102984.72;5053217;28;20045;-52
2022/03/23 11:01:59;;;;;;;36.80;23.33;;;;;;;12.91;39.97;102982.19;5051093;28;20049;-51
2022/03/23 11:04:29;;;;;;;31.85;20.33;;;;;;;12.92;39.62;102981.16;5053600;28;20080;-51
2022/03/23 11:07:01;;;;;;;30.05;21.52;;;;;;;12.97;38.83;102981.28;5043712;28;20122;-53
2022/03/23 11:18:17;;;;;;;29.55;19.42;;;;;;;13.22;41.07;102981.97;5051711;28;20098;-52
2022/03/23 11:20:48;;;;;;;31.90;20.88;;;;;;;13.30;38.26;102975.38;5053083;28;20048;-52
2022/03/23 11:23:30;;;;;;;29.95;21.27;;;;;;;13.44;37.77;102973.25;5049670;28;20042;-52
2022/03/23 11:26:03;;;;;;;30.80;21.77;;;;;;;13.52;38.00;102983.06;5034458;28;20128;-53
2022/03/23 11:28:38;;;;;;;36.95;24.67;;;;;;;13.57;37.75;102970.31;5050459;28;20067;-52
2022/03/23 11:31:18;;;;;;;25.77;19.42;;;;;;;13.58;38.30;102976.63;5052517;28;20037;-56
2022/03/23 11:33:50;;;;;;;19.77;13.13;;;;;;;13.60;40.10;102971.75;5055023;28;20523;-50
2022/03/23 11:36:19;;;;;;;31.38;22.38;;;;;;;13.63;38.12;102974.84;5052555;28;20518;-51
2022/03/23 11:38:52;;;;;;;21.88;17.15;;;;;;;13.66;39.29;102961.75;5040204;28;20049;-52
2022/03/23 11:41:20;;;;;;;30.33;22.00;;;;;;;13.67;36.88;102964.25;5035195;28;20037;-52
2022/03/23 11:43:47;;;;;;;33.08;23.17;;;;;;;13.72;36.58;102960.81;5034273;28;20060;-51
2022/03/23 11:46:24;;;;;;;30.58;21.70;;;;;;;13.76;35.86;102967.50;5034098;28;20052;-52